Shefford, United Kingdom
Current Conditions -  °F | °C
As of 7:20 AM on Sunday 23 Nov 2014 (Local Time) from EGGW Reporting Station
Drizzle Drizzle  
Wind Chill: 43°   Ceiling: 600
Heat Index: 48°   Visibility: 6mi
Dew Point: 46°   Wind: 13mph
Humidity: 93%   Direction: 350°N
Pressure: 29.97"   Gusts: NA
Location:  52.04°N, 0.33°W
Report Text: EGGW 230720Z 35011KT 9000 -DZ BKN006 09/08 Q1015
Loading
Personal Weather Stations






























Interactive Weather Map New forecast layout! Learn more

10-Day Weather Forecast

Advertisements
Track Severe Weather on mobile